createdAt,value
2019-03-23T00:01:10.243Z,52.48
2019-03-23T00:03:39.600Z,59.38
2019-03-23T00:06:11.037Z,54.20
2019-03-23T00:08:40.326Z,56.30
2019-03-23T00:11:09.704Z,58.45
2019-03-23T00:13:39.030Z,59.30
2019-03-23T00:16:11.163Z,62.53
2019-03-23T00:18:40.545Z,59.93
2019-03-23T00:21:09.856Z,59.95
2019-03-23T00:23:39.225Z,62.65
2019-03-23T00:26:13.343Z,71.42
2019-03-23T00:28:42.566Z,70.60
2019-03-23T00:31:11.887Z,71.45
2019-03-23T00:33:41.265Z,65.70
2019-03-23T00:36:10.567Z,70.55
2019-03-23T00:38:39.901Z,70.67
2019-03-23T00:41:09.242Z,79.22
2019-03-23T00:43:38.557Z,70.62
2019-03-23T00:46:07.865Z,70.47
2019-03-23T00:48:37.235Z,73.15
2019-03-23T00:51:06.545Z,75.12
2019-03-23T00:53:35.862Z,73.87
2019-03-23T00:56:05.215Z,72.58
2019-03-23T00:58:34.515Z,77.82
2019-03-23T01:01:03.820Z,73.95
2019-03-23T01:03:33.181Z,74.17
2019-03-23T01:06:02.484Z,81.55
2019-03-23T01:08:31.795Z,88.40
2019-03-23T01:11:01.147Z,79.07
2019-03-23T01:13:30.460Z,77.78
2019-03-23T01:15:59.781Z,75.22
2019-03-23T01:18:29.146Z,81.40
2019-03-23T01:20:58.448Z,77.17
2019-03-23T01:23:27.773Z,71.35
2019-03-23T01:25:57.199Z,74.85
2019-03-23T01:28:26.532Z,76.07
2019-03-23T01:30:56.177Z,77.22
2019-03-23T01:33:25.524Z,80.20
2019-03-23T01:35:54.870Z,80.47
2019-03-23T01:38:24.184Z,84.62
2019-03-23T01:40:53.534Z,89.55
2019-03-23T01:43:22.835Z,90.55
2019-03-23T01:45:52.164Z,96.00
2019-03-23T01:48:21.543Z,95.97
2019-03-23T01:50:50.862Z,94.87
2019-03-23T01:53:20.459Z,105.70
2019-03-23T01:55:49.820Z,106.00
2019-03-23T01:58:19.886Z,104.55
2019-03-23T02:04:36.764Z,107.80
2019-03-23T02:07:13.697Z,113.17
2019-03-23T02:09:39.595Z,105.78
2019-03-23T02:12:08.986Z,108.00
2019-03-23T02:14:38.298Z,123.15
2019-03-23T02:17:07.632Z,117.82
2019-03-23T02:19:37.352Z,102.90
2019-03-23T02:22:08.201Z,124.12
2019-03-23T02:24:37.511Z,109.90
2019-03-23T02:27:06.926Z,111.20
2019-03-23T02:29:36.238Z,113.80
2019-03-23T02:32:05.545Z,118.62
2019-03-23T02:34:34.935Z,116.03
2019-03-23T02:37:04.604Z,116.05
2019-03-23T02:39:34.203Z,119.40
2019-03-23T02:42:03.577Z,118.82
2019-03-23T02:44:32.874Z,122.22
2019-03-23T02:47:02.233Z,107.75
2019-03-23T02:49:31.581Z,123.28
2019-03-23T02:52:00.894Z,114.08
2019-03-23T02:54:30.201Z,125.30
2019-03-23T02:56:59.556Z,122.55
2019-03-23T02:59:28.991Z,122.95
2019-03-23T03:01:58.300Z,123.87
2019-03-23T03:04:27.683Z,132.15
2019-03-23T03:06:57.326Z,123.58
2019-03-23T03:09:26.635Z,122.30
2019-03-23T03:11:55.968Z,126.25
2019-03-23T03:14:25.279Z,125.50
2019-03-23T03:16:55.661Z,133.57
2019-03-23T03:19:25.359Z,126.22
2019-03-23T03:21:54.681Z,128.70
2019-03-23T03:24:23.986Z,125.38
2019-03-23T03:26:53.327Z,120.67
2019-03-23T03:29:22.627Z,126.72
2019-03-23T03:31:52.268Z,112.52
2019-03-23T03:34:22.019Z,136.18
2019-03-23T03:36:51.326Z,123.50
2019-03-23T03:39:20.633Z,124.22
2019-03-23T03:41:49.985Z,121.53
2019-03-23T03:44:19.323Z,128.65
2019-03-23T03:46:48.609Z,131.12
2019-03-23T03:49:17.969Z,135.30
2019-03-23T03:51:47.281Z,126.53
2019-03-23T03:54:16.586Z,119.22
2019-03-23T03:56:45.964Z,122.87
2019-03-23T03:59:15.270Z,119.55
2019-03-23T04:01:45.241Z,110.12
2019-03-23T04:04:14.597Z,115.10
2019-03-23T04:06:43.903Z,122.85
2019-03-23T04:09:13.215Z,130.55
2019-03-23T04:11:42.574Z,118.10
2019-03-23T04:14:12.208Z,105.85
2019-03-23T04:16:41.514Z,108.63
2019-03-23T04:19:10.856Z,115.00
2019-03-23T04:21:40.171Z,107.85
2019-03-23T04:24:09.475Z,106.58
2019-03-23T04:26:39.493Z,93.00
2019-03-23T04:29:09.009Z,101.02
2019-03-23T04:31:38.310Z,97.65
2019-03-23T04:34:07.645Z,97.67
2019-03-23T04:36:36.944Z,96.32
2019-03-23T04:39:07.015Z,98.07
2019-03-23T04:41:36.365Z,90.80
2019-03-23T04:44:05.662Z,90.65
2019-03-23T04:46:34.951Z,92.40
2019-03-23T04:49:04.390Z,91.28
2019-03-23T04:51:33.689Z,89.10
2019-03-23T04:54:03.017Z,84.90
2019-03-23T04:56:32.338Z,86.82
2019-03-23T04:59:01.635Z,79.80
2019-03-23T05:01:30.935Z,83.25
2019-03-23T05:04:00.291Z,79.30
2019-03-23T05:06:29.587Z,71.72
2019-03-23T05:08:58.886Z,81.82
2019-03-23T05:11:28.246Z,78.35
2019-03-23T05:13:57.545Z,74.30
2019-03-23T05:16:27.109Z,80.07
2019-03-23T05:18:57.416Z,73.02
2019-03-23T05:21:26.719Z,73.57
2019-03-23T05:23:56.014Z,69.03
2019-03-23T05:26:25.359Z,71.12
2019-03-23T05:28:55.010Z,71.95
2019-03-23T05:31:24.393Z,68.70
2019-03-23T05:33:53.743Z,73.05
2019-03-23T05:36:23.908Z,71.60
2019-03-23T05:38:53.209Z,70.12
2019-03-23T05:41:22.563Z,71.12
2019-03-23T05:43:51.867Z,70.20
2019-03-23T05:46:21.187Z,71.55
2019-03-23T05:48:50.553Z,70.55
2019-03-23T05:51:19.849Z,74.17
2019-03-23T05:53:49.160Z,76.05
2019-03-23T05:56:18.488Z,75.70
2019-03-23T05:58:47.791Z,74.60
2019-03-23T06:01:17.093Z,85.40
2019-03-23T06:03:46.450Z,77.95
2019-03-23T06:06:15.747Z,82.85
2019-03-23T06:08:54.521Z,76.75
2019-03-23T06:11:16.398Z,78.92
2019-03-23T06:13:48.862Z,76.12
2019-03-23T06:16:18.473Z,76.55
2019-03-23T06:18:47.823Z,77.00
2019-03-23T06:21:17.200Z,76.87
2019-03-23T06:23:46.506Z,71.22
2019-03-23T06:26:16.013Z,76.42
2019-03-23T06:28:45.313Z,72.90
2019-03-23T06:31:14.626Z,75.28
2019-03-23T06:33:43.972Z,70.60
2019-03-23T06:36:13.282Z,74.82
2019-03-23T06:38:42.581Z,70.00
2019-03-23T06:41:11.926Z,67.97
2019-03-23T06:43:41.224Z,72.40
2019-03-23T06:46:10.538Z,64.40
2019-03-23T06:48:39.875Z,74.75
2019-03-23T06:51:09.179Z,63.65
2019-03-23T06:53:38.475Z,72.50
2019-03-23T06:56:07.819Z,68.57
2019-03-23T06:58:38.646Z,75.65
2019-03-23T07:01:08.328Z,72.37
2019-03-23T07:03:37.679Z,67.90
2019-03-23T07:06:06.974Z,70.55
2019-03-23T07:08:36.271Z,69.95
2019-03-23T07:11:05.617Z,73.05
2019-03-23T07:13:34.907Z,72.42
2019-03-23T07:16:04.216Z,73.07
2019-03-23T07:18:33.563Z,70.05
2019-03-23T07:21:02.857Z,70.42
2019-03-23T07:23:32.154Z,68.57
2019-03-23T07:26:01.661Z,66.37
2019-03-23T07:28:30.967Z,69.05
2019-03-23T07:34:48.503Z,70.85
2019-03-23T07:37:17.802Z,64.22
2019-03-23T07:39:47.100Z,72.10
2019-03-23T07:42:49.565Z,65.12
2019-03-23T07:45:18.931Z,65.52
2019-03-23T07:47:48.227Z,63.85
2019-03-23T07:50:17.639Z,68.00
2019-03-23T07:52:49.701Z,62.62
2019-03-23T07:55:19.016Z,69.72
2019-03-23T07:57:49.267Z,65.40
2019-03-23T08:00:21.445Z,62.08
2019-03-23T08:02:50.740Z,68.28
2019-03-23T08:05:20.126Z,67.65
2019-03-23T08:07:49.410Z,78.90
2019-03-23T08:10:33.095Z,63.35
2019-03-23T08:13:02.776Z,65.03
2019-03-23T08:15:32.159Z,66.80
2019-03-23T08:18:01.501Z,70.97
2019-03-23T08:20:30.848Z,64.85
2019-03-23T08:23:03.084Z,66.17
2019-03-23T08:25:32.413Z,65.05
2019-03-23T08:28:01.717Z,65.47
2019-03-23T08:30:31.012Z,66.30
2019-03-23T08:36:47.525Z,63.80
2019-03-23T08:39:16.838Z,62.20
2019-03-23T08:41:46.526Z,59.90
2019-03-23T08:44:15.822Z,66.65
2019-03-23T08:46:46.358Z,56.75
2019-03-23T08:49:15.724Z,59.80
2019-03-23T08:51:45.082Z,61.88
2019-03-23T08:54:14.387Z,58.20
2019-03-23T08:56:43.692Z,60.00
2019-03-23T08:59:13.053Z,63.02
2019-03-23T09:01:42.357Z,63.83
2019-03-23T09:04:11.660Z,61.55
2019-03-23T09:06:41.003Z,58.40
2019-03-23T09:09:10.309Z,59.88
2019-03-23T09:11:39.701Z,58.98
2019-03-23T09:14:09.056Z,56.33
2019-03-23T09:16:38.358Z,59.18
2019-03-23T09:19:07.681Z,58.73
2019-03-23T09:21:37.035Z,58.52
2019-03-23T09:24:06.432Z,53.87
2019-03-23T09:26:35.753Z,56.92
2019-03-23T09:29:05.119Z,58.63
2019-03-23T09:31:34.425Z,57.10
2019-03-23T09:34:03.738Z,56.95
2019-03-23T09:36:33.114Z,57.48
2019-03-23T09:39:02.450Z,63.73
2019-03-23T09:41:31.755Z,58.85
2019-03-23T09:44:02.798Z,56.92
2019-03-23T09:46:32.136Z,60.52
2019-03-23T09:49:01.424Z,59.90
2019-03-23T09:51:30.795Z,63.25
2019-03-23T09:54:00.113Z,59.48
2019-03-23T09:56:29.436Z,63.00
2019-03-23T09:58:58.814Z,56.35
2019-03-23T10:01:28.120Z,57.45
2019-03-23T10:03:57.468Z,59.35
2019-03-23T10:06:26.812Z,54.77
2019-03-23T10:08:56.124Z,59.27
2019-03-23T10:11:25.432Z,60.05
2019-03-23T10:13:55.081Z,59.90
2019-03-23T10:16:24.395Z,61.80
2019-03-23T10:18:53.721Z,58.23
2019-03-23T10:21:23.402Z,58.02
2019-03-23T10:23:54.632Z,61.37
2019-03-23T10:26:23.944Z,54.05
2019-03-23T10:28:53.333Z,56.10
2019-03-23T10:31:22.632Z,57.93
2019-03-23T10:33:51.938Z,55.90
2019-03-23T10:36:21.313Z,60.03
2019-03-23T10:38:50.693Z,59.85
2019-03-23T10:41:20.005Z,60.78
2019-03-23T10:43:49.370Z,62.35
2019-03-23T10:46:18.698Z,59.67
2019-03-23T10:48:48.020Z,57.78
2019-03-23T10:51:17.383Z,55.73
2019-03-23T10:53:46.709Z,55.83
2019-03-23T10:56:16.018Z,58.48
2019-03-23T10:58:45.388Z,51.60
2019-03-23T11:01:14.697Z,60.95
2019-03-23T11:03:43.999Z,57.00
2019-03-23T11:06:13.428Z,57.38
2019-03-23T11:12:42.861Z,54.88
2019-03-23T11:15:12.642Z,51.77
2019-03-23T11:17:41.942Z,59.38
2019-03-23T11:20:14.091Z,56.53
2019-03-23T11:22:43.447Z,63.55
2019-03-23T11:25:13.610Z,59.80
2019-03-23T11:27:43.005Z,66.75
2019-03-23T11:30:14.898Z,62.10
2019-03-23T11:32:44.896Z,57.78
2019-03-23T11:35:14.663Z,63.63
2019-03-23T11:37:44.251Z,58.98
2019-03-23T11:40:13.933Z,60.35
2019-03-23T11:42:49.684Z,58.45
2019-03-23T11:45:15.968Z,64.25
2019-03-23T11:47:45.368Z,64.30
2019-03-23T11:50:14.799Z,67.80
2019-03-23T11:52:44.397Z,66.05
2019-03-23T11:55:14.189Z,61.98
2019-03-23T11:57:43.524Z,61.70
2019-03-23T12:00:15.786Z,67.78
2019-03-23T12:02:45.097Z,65.92
2019-03-23T12:05:15.351Z,59.13
2019-03-23T12:07:45.198Z,65.97
2019-03-23T12:10:15.035Z,64.92
2019-03-23T12:12:44.445Z,69.55
2019-03-23T12:15:14.590Z,67.17
2019-03-23T12:17:43.892Z,65.47
2019-03-23T12:20:13.902Z,65.65
2019-03-23T12:22:43.278Z,63.73
2019-03-23T12:25:12.728Z,66.65
2019-03-23T12:27:43.059Z,66.02
2019-03-23T12:30:16.541Z,65.92
2019-03-23T12:32:45.917Z,62.98
2019-03-23T12:35:15.278Z,70.92
2019-03-23T12:37:44.586Z,67.22
2019-03-23T12:40:14.929Z,70.32
2019-03-23T12:42:44.285Z,63.50
2019-03-23T12:45:13.936Z,61.95
2019-03-23T12:47:43.243Z,68.67
2019-03-23T12:50:13.706Z,68.78
2019-03-23T12:52:43.017Z,68.45
2019-03-23T12:55:12.698Z,69.67
2019-03-23T12:57:42.061Z,77.10
2019-03-23T13:00:19.521Z,68.12
2019-03-23T13:02:48.875Z,69.50
2019-03-23T13:05:18.196Z,72.08
2019-03-23T13:07:47.497Z,72.42
2019-03-23T13:10:16.930Z,68.33
2019-03-23T13:12:46.235Z,66.97
2019-03-23T13:15:16.987Z,74.67
2019-03-23T13:17:46.398Z,67.40
2019-03-23T13:20:16.858Z,62.93
2019-03-23T13:22:46.112Z,70.95
2019-03-23T13:25:15.478Z,61.98
2019-03-23T13:27:45.021Z,73.85
2019-03-23T13:30:18.593Z,61.23
2019-03-23T13:32:48.223Z,67.08
2019-03-23T13:35:17.532Z,66.55
2019-03-23T13:37:46.876Z,68.57
2019-03-23T13:40:16.294Z,64.03
2019-03-23T13:42:45.598Z,65.17
2019-03-23T13:45:15.148Z,67.45
2019-03-23T13:47:44.507Z,67.42
2019-03-23T13:50:15.661Z,63.45
2019-03-23T13:52:44.980Z,69.07
2019-03-23T13:55:29.991Z,71.67
2019-03-23T13:58:14.217Z,69.95
2019-03-23T14:00:43.741Z,63.60
2019-03-23T14:03:13.536Z,67.15
2019-03-23T14:05:43.133Z,69.07
2019-03-23T14:08:12.496Z,67.40
2019-03-23T14:10:41.855Z,67.70
2019-03-23T14:13:11.156Z,73.52
2019-03-23T14:15:40.515Z,74.72
2019-03-23T14:18:09.827Z,71.05
2019-03-23T14:20:39.136Z,69.40
2019-03-23T14:23:08.478Z,69.42
2019-03-23T14:26:32.467Z,69.92
2019-03-23T14:29:01.812Z,72.75
2019-03-23T14:31:31.115Z,69.67
2019-03-23T14:34:00.439Z,74.00
2019-03-23T14:36:29.847Z,70.57
2019-03-23T14:38:59.186Z,67.00
2019-03-23T14:41:28.489Z,68.85
2019-03-23T14:43:57.878Z,75.95
2019-03-23T14:47:30.579Z,70.25
2019-03-23T14:49:59.953Z,72.97
2019-03-23T14:52:29.276Z,69.27
2019-03-23T14:54:58.579Z,72.80
2019-03-23T14:57:27.939Z,77.08
2019-03-23T14:59:57.246Z,68.47
2019-03-23T15:02:26.566Z,64.65
2019-03-23T15:04:55.934Z,72.20
2019-03-23T15:07:25.240Z,71.70
2019-03-23T15:09:54.540Z,73.12
2019-03-23T15:12:23.919Z,70.10
2019-03-23T15:14:53.224Z,74.55
2019-03-23T15:17:22.831Z,75.78
2019-03-23T15:19:52.550Z,72.80
2019-03-23T15:22:21.889Z,70.95
2019-03-23T15:28:39.444Z,73.40
2019-03-23T15:31:08.760Z,68.07
2019-03-23T15:33:38.061Z,72.17
2019-03-23T15:36:07.928Z,68.97
2019-03-23T15:38:37.271Z,69.40
2019-03-23T15:41:06.811Z,67.90
2019-03-23T15:43:36.149Z,72.50
2019-03-23T15:46:05.535Z,68.90
2019-03-23T15:48:34.807Z,70.30
2019-03-23T15:51:04.170Z,75.50
2019-03-23T15:53:33.470Z,69.95
2019-03-23T15:56:02.856Z,72.35
2019-03-23T15:58:32.239Z,71.10
2019-03-23T16:01:01.826Z,72.85
2019-03-23T16:03:31.133Z,74.55
2019-03-23T16:06:00.502Z,75.83
2019-03-23T16:08:30.041Z,71.62
2019-03-23T16:10:59.646Z,73.30
2019-03-23T16:13:31.597Z,70.00
2019-03-23T16:16:00.907Z,69.55
2019-03-23T16:18:30.220Z,74.37
2019-03-23T16:20:59.575Z,69.55
2019-03-23T16:23:28.889Z,72.95
2019-03-23T16:25:58.190Z,68.42
2019-03-23T16:28:27.566Z,81.00
2019-03-23T16:30:56.872Z,64.53
2019-03-23T16:33:26.179Z,70.87
2019-03-23T16:35:55.527Z,81.22
2019-03-23T16:38:25.119Z,69.42
2019-03-23T16:40:54.492Z,64.80
2019-03-23T16:43:23.847Z,72.20
2019-03-23T16:45:53.218Z,71.50
2019-03-23T16:48:22.522Z,67.75
2019-03-23T16:50:51.864Z,76.97
2019-03-23T16:53:21.168Z,69.17
2019-03-23T16:55:50.472Z,73.42
2019-03-23T16:58:22.513Z,60.83
2019-03-23T17:00:51.819Z,65.08
2019-03-23T17:03:21.129Z,68.80
2019-03-23T17:05:50.487Z,65.83
2019-03-23T17:08:19.780Z,68.00
2019-03-23T17:10:49.091Z,67.42
2019-03-23T17:13:18.447Z,65.25
2019-03-23T17:15:47.753Z,64.47
2019-03-23T17:18:17.124Z,66.10
2019-03-23T17:20:46.469Z,62.80
2019-03-23T17:23:15.775Z,65.28
2019-03-23T17:25:45.074Z,63.73
2019-03-23T17:28:14.434Z,63.15
2019-03-23T17:30:43.740Z,62.15
2019-03-23T17:33:13.291Z,66.10
2019-03-23T17:35:42.650Z,69.55
2019-03-23T17:38:15.269Z,64.72
2019-03-23T17:40:44.801Z,63.90
2019-03-23T17:43:14.486Z,63.50
2019-03-23T17:45:43.785Z,64.40
2019-03-23T17:48:13.391Z,68.17
2019-03-23T17:50:42.750Z,62.55
2019-03-23T17:53:12.062Z,64.35
2019-03-23T17:55:41.370Z,67.60
2019-03-23T17:58:10.760Z,61.98
2019-03-23T18:00:40.048Z,68.10
2019-03-23T18:03:09.356Z,63.90
2019-03-23T18:05:39.010Z,64.82
2019-03-23T18:08:08.321Z,58.60
2019-03-23T18:10:37.622Z,61.73
2019-03-23T18:13:16.152Z,64.40
2019-03-23T18:15:38.002Z,67.03
2019-03-23T18:18:07.561Z,69.10
2019-03-23T18:20:36.902Z,64.47
2019-03-23T18:23:06.347Z,61.00
2019-03-23T18:25:35.653Z,58.45
2019-03-23T18:28:05.089Z,55.30
2019-03-23T18:30:41.046Z,48.48
2019-03-23T18:33:10.459Z,48.08
2019-03-23T18:35:39.910Z,33.53
2019-03-23T18:38:09.353Z,30.50
2019-03-23T18:40:39.215Z,28.45
2019-03-23T18:43:08.906Z,28.25
2019-03-23T18:45:38.272Z,26.85
2019-03-23T18:48:07.953Z,26.37
2019-03-23T18:50:37.255Z,27.25
2019-03-23T18:53:06.555Z,25.95
2019-03-23T18:55:36.051Z,26.15
2019-03-23T18:58:05.417Z,27.32
2019-03-23T19:00:42.803Z,28.65
2019-03-23T19:03:12.822Z,26.12
2019-03-23T19:05:44.824Z,28.27
2019-03-23T19:08:14.156Z,27.05
2019-03-23T19:10:43.464Z,30.20
2019-03-23T19:13:13.048Z,29.30
2019-03-23T19:15:42.387Z,24.67
2019-03-23T19:18:11.684Z,28.52
2019-03-23T19:20:41.255Z,31.80
2019-03-23T19:23:10.874Z,30.92
2019-03-23T19:25:40.172Z,31.35
2019-03-23T19:28:09.469Z,30.52
2019-03-23T19:30:38.864Z,34.70
2019-03-23T19:33:08.161Z,34.80
2019-03-23T19:35:37.459Z,32.28
2019-03-23T19:38:06.813Z,30.75
2019-03-23T19:40:36.121Z,32.65
2019-03-23T19:43:05.491Z,32.48
2019-03-23T19:45:34.832Z,30.77
2019-03-23T19:48:05.294Z,32.23
2019-03-23T19:50:34.605Z,31.15
2019-03-23T19:53:04.328Z,28.50
2019-03-23T19:55:33.626Z,33.90
2019-03-23T19:58:02.931Z,33.40
2019-03-23T20:00:32.278Z,30.25
2019-03-23T20:03:01.580Z,30.05
2019-03-23T20:05:30.950Z,34.35
2019-03-23T20:08:00.304Z,29.90
2019-03-23T20:10:32.509Z,34.58
2019-03-23T20:13:01.818Z,31.85
2019-03-23T20:15:31.233Z,30.88
2019-03-23T20:18:00.603Z,28.62
2019-03-23T20:20:29.901Z,29.57
2019-03-23T20:22:59.246Z,29.95
2019-03-23T20:25:28.547Z,34.00
2019-03-23T20:27:57.923Z,31.20
2019-03-23T20:30:27.266Z,29.05
2019-03-23T20:32:56.568Z,28.10
2019-03-23T20:35:25.871Z,31.07
2019-03-23T20:37:55.216Z,27.35
2019-03-23T20:40:24.510Z,29.40
2019-03-23T20:42:53.806Z,30.57
2019-03-23T20:45:29.703Z,30.15
2019-03-23T20:47:59.375Z,33.28
2019-03-23T20:50:28.778Z,30.50
2019-03-23T20:52:58.200Z,30.75
2019-03-23T20:59:27.459Z,30.43
2019-03-23T21:01:56.817Z,28.25
2019-03-23T21:04:26.139Z,29.55
2019-03-23T21:06:55.510Z,29.20
2019-03-23T21:09:24.811Z,28.38
2019-03-23T21:11:54.113Z,25.10
2019-03-23T21:14:23.476Z,29.35
2019-03-23T21:16:52.765Z,28.27
2019-03-23T21:19:22.066Z,29.65
2019-03-23T21:21:51.417Z,29.77
2019-03-23T21:24:20.723Z,32.45
2019-03-23T21:26:50.022Z,29.12
2019-03-23T21:29:19.392Z,28.65
2019-03-23T21:31:48.680Z,27.62
2019-03-23T21:34:18.004Z,26.68
2019-03-23T21:36:47.328Z,26.70
2019-03-23T21:39:16.617Z,29.50
2019-03-23T21:41:45.917Z,30.90
2019-03-23T21:44:15.268Z,29.02
2019-03-23T21:47:27.053Z,28.10
2019-03-23T21:49:56.706Z,23.77
2019-03-23T21:52:26.009Z,24.80
2019-03-23T21:54:55.302Z,26.82
2019-03-23T21:57:24.651Z,25.62
2019-03-23T21:59:53.949Z,29.82
2019-03-23T22:02:23.250Z,22.52
2019-03-23T22:04:52.594Z,21.80
2019-03-23T22:07:22.166Z,21.42
2019-03-23T22:09:51.423Z,22.90
2019-03-23T22:12:22.312Z,19.30
2019-03-23T22:14:51.687Z,19.30
2019-03-23T22:17:20.972Z,20.65
2019-03-23T22:19:50.323Z,21.68
2019-03-23T22:22:19.645Z,17.77
2019-03-23T22:24:48.940Z,19.52
2019-03-23T22:27:19.317Z,19.15
2019-03-23T22:29:48.878Z,22.17
2019-03-23T22:32:18.158Z,16.40
2019-03-23T22:34:49.326Z,17.52
2019-03-23T22:37:18.518Z,16.23
2019-03-23T22:39:48.062Z,15.83
2019-03-23T22:42:17.638Z,17.82
2019-03-23T22:44:52.544Z,19.27
2019-03-23T22:47:17.954Z,16.85
2019-03-23T22:49:47.308Z,15.43
2019-03-23T22:52:16.599Z,14.38
2019-03-23T22:54:45.893Z,17.45
2019-03-23T22:57:15.471Z,15.18
2019-03-23T22:59:44.774Z,17.75
2019-03-23T23:02:14.122Z,19.60
2019-03-23T23:04:43.469Z,17.85
2019-03-23T23:07:12.771Z,16.17
2019-03-23T23:09:42.059Z,17.20
2019-03-23T23:12:11.395Z,13.75
2019-03-23T23:14:40.688Z,14.87
2019-03-23T23:17:09.969Z,18.10
2019-03-23T23:19:39.785Z,19.48
2019-03-23T23:22:09.082Z,13.78
2019-03-23T23:24:38.372Z,14.47
2019-03-23T23:27:07.712Z,15.38
2019-03-23T23:29:37.015Z,18.98
2019-03-23T23:32:06.294Z,13.30
2019-03-23T23:34:35.894Z,14.15
2019-03-23T23:37:05.281Z,16.85
2019-03-23T23:39:34.576Z,18.82
2019-03-23T23:42:04.538Z,15.25
2019-03-23T23:44:33.851Z,17.48
2019-03-23T23:47:06.302Z,18.92
2019-03-23T23:49:35.662Z,13.25
2019-03-23T23:52:05.041Z,14.15
2019-03-23T23:54:34.321Z,17.27
2019-03-23T23:57:03.680Z,20.15
2019-03-23T23:59:32.979Z,16.95
